sensor_id;sensor_type;location;lat;lon;timestamp;P1;durP1;ratioP1;P2;durP2;ratioP2
25824;SDS011;13658;44.534;18.694;2022-10-28T00:01:21;51.38;;;27.58;;
25824;SDS011;13658;44.534;18.694;2022-10-28T00:03:50;42.00;;;26.58;;
25824;SDS011;13658;44.534;18.694;2022-10-28T00:06:19;47.15;;;27.50;;
25824;SDS011;13658;44.534;18.694;2022-10-28T00:08:47;47.05;;;27.85;;
25824;SDS011;13658;44.534;18.694;2022-10-28T00:11:18;44.63;;;26.50;;
25824;SDS011;13658;44.534;18.694;2022-10-28T00:13:46;42.15;;;26.85;;
25824;SDS011;13658;44.534;18.694;2022-10-28T00:16:17;46.80;;;27.35;;
25824;SDS011;13658;44.534;18.694;2022-10-28T00:18:45;43.38;;;24.65;;
25824;SDS011;13658;44.534;18.694;2022-10-28T00:21:13;43.50;;;25.73;;
25824;SDS011;13658;44.534;18.694;2022-10-28T00:23:41;42.55;;;24.77;;
25824;SDS011;13658;44.534;18.694;2022-10-28T00:26:13;41.85;;;25.55;;
25824;SDS011;13658;44.534;18.694;2022-10-28T00:28:41;40.75;;;24.20;;
25824;SDS011;13658;44.534;18.694;2022-10-28T00:31:09;42.00;;;23.45;;
25824;SDS011;13658;44.534;18.694;2022-10-28T00:33:36;42.30;;;23.50;;
25824;SDS011;13658;44.534;18.694;2022-10-28T00:36:10;33.50;;;21.20;;
25824;SDS011;13658;44.534;18.694;2022-10-28T00:38:36;36.15;;;22.00;;
25824;SDS011;13658;44.534;18.694;2022-10-28T00:41:02;42.55;;;24.42;;
25824;SDS011;13658;44.534;18.694;2022-10-28T00:43:33;42.55;;;24.38;;
25824;SDS011;13658;44.534;18.694;2022-10-28T00:46:02;39.13;;;23.80;;
25824;SDS011;13658;44.534;18.694;2022-10-28T00:48:31;38.78;;;21.33;;
25824;SDS011;13658;44.534;18.694;2022-10-28T00:50:57;39.45;;;22.77;;
25824;SDS011;13658;44.534;18.694;2022-10-28T00:53:25;37.60;;;22.45;;
25824;SDS011;13658;44.534;18.694;2022-10-28T00:55:53;36.10;;;22.40;;
25824;SDS011;13658;44.534;18.694;2022-10-28T00:58:21;38.63;;;22.95;;
25824;SDS011;13658;44.534;18.694;2022-10-28T01:00:52;40.97;;;23.98;;
25824;SDS011;13658;44.534;18.694;2022-10-28T01:03:18;43.30;;;25.85;;
25824;SDS011;13658;44.534;18.694;2022-10-28T01:05:45;43.58;;;26.20;;
25824;SDS011;13658;44.534;18.694;2022-10-28T01:08:12;46.92;;;25.15;;
25824;SDS011;13658;44.534;18.694;2022-10-28T01:10:56;45.28;;;24.48;;
25824;SDS011;13658;44.534;18.694;2022-10-28T01:13:57;41.00;;;24.20;;
25824;SDS011;13658;44.534;18.694;2022-10-28T01:30:24;34.97;;;20.63;;
25824;SDS011;13658;44.534;18.694;2022-10-28T01:33:07;29.55;;;19.15;;
25824;SDS011;13658;44.534;18.694;2022-10-28T01:35:43;39.65;;;20.63;;
25824;SDS011;13658;44.534;18.694;2022-10-28T01:43:51;36.25;;;19.67;;
25824;SDS011;13658;44.534;18.694;2022-10-28T01:46:39;33.60;;;20.52;;
25824;SDS011;13658;44.534;18.694;2022-10-28T01:49:13;30.95;;;20.00;;
25824;SDS011;13658;44.534;18.694;2022-10-28T01:51:46;28.80;;;19.05;;
25824;SDS011;13658;44.534;18.694;2022-10-28T01:54:18;30.05;;;18.20;;
25824;SDS011;13658;44.534;18.694;2022-10-28T01:56:47;30.65;;;18.83;;
25824;SDS011;13658;44.534;18.694;2022-10-28T01:59:24;31.33;;;19.70;;
25824;SDS011;13658;44.534;18.694;2022-10-28T02:01:52;33.63;;;19.88;;
25824;SDS011;13658;44.534;18.694;2022-10-28T02:04:19;35.17;;;19.75;;
25824;SDS011;13658;44.534;18.694;2022-10-28T02:06:45;33.05;;;19.83;;
25824;SDS011;13658;44.534;18.694;2022-10-28T02:20:52;32.25;;;19.02;;
25824;SDS011;13658;44.534;18.694;2022-10-28T02:23:10;28.55;;;18.33;;
25824;SDS011;13658;44.534;18.694;2022-10-28T02:25:42;34.33;;;19.77;;
25824;SDS011;13658;44.534;18.694;2022-10-28T02:28:17;28.40;;;17.13;;
25824;SDS011;13658;44.534;18.694;2022-10-28T02:33:40;30.02;;;17.63;;
25824;SDS011;13658;44.534;18.694;2022-10-28T02:36:11;31.50;;;18.88;;
25824;SDS011;13658;44.534;18.694;2022-10-28T02:38:42;31.08;;;19.05;;
25824;SDS011;13658;44.534;18.694;2022-10-28T02:43:46;32.50;;;19.08;;
25824;SDS011;13658;44.534;18.694;2022-10-28T02:46:17;35.83;;;19.55;;
25824;SDS011;13658;44.534;18.694;2022-10-28T02:48:46;28.30;;;18.20;;
25824;SDS011;13658;44.534;18.694;2022-10-28T02:52:06;31.05;;;15.10;;
25824;SDS011;13658;44.534;18.694;2022-10-28T02:54:16;29.35;;;16.15;;
25824;SDS011;13658;44.534;18.694;2022-10-28T02:56:50;28.42;;;17.83;;
25824;SDS011;13658;44.534;18.694;2022-10-28T02:59:28;32.53;;;17.92;;
25824;SDS011;13658;44.534;18.694;2022-10-28T03:01:54;29.70;;;18.58;;
25824;SDS011;13658;44.534;18.694;2022-10-28T03:04:21;28.98;;;18.08;;
25824;SDS011;13658;44.534;18.694;2022-10-28T03:06:47;27.58;;;17.75;;
25824;SDS011;13658;44.534;18.694;2022-10-28T03:09:12;30.50;;;19.13;;
25824;SDS011;13658;44.534;18.694;2022-10-28T03:11:38;33.72;;;20.10;;
25824;SDS011;13658;44.534;18.694;2022-10-28T03:14:04;32.28;;;18.75;;
25824;SDS011;13658;44.534;18.694;2022-10-28T03:16:30;31.95;;;19.83;;
25824;SDS011;13658;44.534;18.694;2022-10-28T03:18:56;32.50;;;19.85;;
25824;SDS011;13658;44.534;18.694;2022-10-28T03:21:22;33.13;;;19.50;;
25824;SDS011;13658;44.534;18.694;2022-10-28T03:23:48;33.25;;;19.00;;
25824;SDS011;13658;44.534;18.694;2022-10-28T03:26:14;32.85;;;20.00;;
25824;SDS011;13658;44.534;18.694;2022-10-28T03:28:40;32.13;;;18.95;;
25824;SDS011;13658;44.534;18.694;2022-10-28T03:31:06;36.88;;;20.50;;
25824;SDS011;13658;44.534;18.694;2022-10-28T03:33:32;28.67;;;18.27;;
25824;SDS011;13658;44.534;18.694;2022-10-28T03:35:57;33.00;;;19.73;;
25824;SDS011;13658;44.534;18.694;2022-10-28T03:38:23;32.08;;;20.20;;
25824;SDS011;13658;44.534;18.694;2022-10-28T03:40:49;31.38;;;19.30;;
25824;SDS011;13658;44.534;18.694;2022-10-28T03:43:16;31.42;;;19.95;;
25824;SDS011;13658;44.534;18.694;2022-10-28T03:45:42;29.90;;;18.70;;
25824;SDS011;13658;44.534;18.694;2022-10-28T03:48:08;32.10;;;19.58;;
25824;SDS011;13658;44.534;18.694;2022-10-28T03:50:34;30.55;;;19.08;;
25824;SDS011;13658;44.534;18.694;2022-10-28T03:53:00;32.17;;;18.77;;
25824;SDS011;13658;44.534;18.694;2022-10-28T03:55:26;35.42;;;18.77;;
25824;SDS011;13658;44.534;18.694;2022-10-28T03:57:52;34.28;;;20.75;;
25824;SDS011;13658;44.534;18.694;2022-10-28T04:00:18;37.78;;;22.30;;
25824;SDS011;13658;44.534;18.694;2022-10-28T04:02:48;39.08;;;24.05;;
25824;SDS011;13658;44.534;18.694;2022-10-28T04:05:15;44.75;;;23.30;;
25824;SDS011;13658;44.534;18.694;2022-10-28T04:07:42;40.53;;;23.38;;
25824;SDS011;13658;44.534;18.694;2022-10-28T04:10:08;38.83;;;21.75;;
25824;SDS011;13658;44.534;18.694;2022-10-28T04:12:34;40.45;;;23.73;;
25824;SDS011;13658;44.534;18.694;2022-10-28T04:15:01;41.20;;;21.73;;
25824;SDS011;13658;44.534;18.694;2022-10-28T04:17:27;34.97;;;21.58;;
25824;SDS011;13658;44.534;18.694;2022-10-28T04:19:53;37.55;;;22.48;;
25824;SDS011;13658;44.534;18.694;2022-10-28T04:22:18;35.30;;;22.63;;
25824;SDS011;13658;44.534;18.694;2022-10-28T04:24:44;40.70;;;22.52;;
25824;SDS011;13658;44.534;18.694;2022-10-28T04:27:10;37.90;;;23.55;;
25824;SDS011;13658;44.534;18.694;2022-10-28T04:29:36;38.33;;;23.08;;
25824;SDS011;13658;44.534;18.694;2022-10-28T04:32:02;38.67;;;24.02;;
25824;SDS011;13658;44.534;18.694;2022-10-28T04:34:28;45.90;;;25.38;;
25824;SDS011;13658;44.534;18.694;2022-10-28T04:36:54;40.72;;;24.85;;
25824;SDS011;13658;44.534;18.694;2022-10-28T04:39:20;42.80;;;26.23;;
25824;SDS011;13658;44.534;18.694;2022-10-28T04:41:46;40.47;;;25.15;;
25824;SDS011;13658;44.534;18.694;2022-10-28T04:44:12;40.25;;;23.65;;
25824;SDS011;13658;44.534;18.694;2022-10-28T04:46:38;40.13;;;24.25;;
25824;SDS011;13658;44.534;18.694;2022-10-28T04:49:04;41.92;;;24.70;;
25824;SDS011;13658;44.534;18.694;2022-10-28T04:51:30;45.30;;;24.83;;
25824;SDS011;13658;44.534;18.694;2022-10-28T04:53:56;45.92;;;25.52;;
25824;SDS011;13658;44.534;18.694;2022-10-28T04:56:22;44.22;;;26.70;;
25824;SDS011;13658;44.534;18.694;2022-10-28T04:58:48;50.63;;;27.77;;
25824;SDS011;13658;44.534;18.694;2022-10-28T05:01:14;44.85;;;25.08;;
25824;SDS011;13658;44.534;18.694;2022-10-28T05:03:39;43.60;;;25.30;;
25824;SDS011;13658;44.534;18.694;2022-10-28T05:06:05;43.72;;;25.42;;
25824;SDS011;13658;44.534;18.694;2022-10-28T05:08:31;41.63;;;25.63;;
25824;SDS011;13658;44.534;18.694;2022-10-28T05:10:57;47.20;;;26.42;;
25824;SDS011;13658;44.534;18.694;2022-10-28T05:13:23;40.35;;;24.98;;
25824;SDS011;13658;44.534;18.694;2022-10-28T05:15:49;43.10;;;25.00;;
25824;SDS011;13658;44.534;18.694;2022-10-28T05:18:16;51.47;;;28.67;;
25824;SDS011;13658;44.534;18.694;2022-10-28T05:20:42;45.65;;;26.05;;
25824;SDS011;13658;44.534;18.694;2022-10-28T05:23:08;46.53;;;25.80;;
25824;SDS011;13658;44.534;18.694;2022-10-28T05:25:34;44.83;;;27.35;;
25824;SDS011;13658;44.534;18.694;2022-10-28T05:28:00;48.65;;;27.48;;
25824;SDS011;13658;44.534;18.694;2022-10-28T05:30:26;54.17;;;30.77;;
25824;SDS011;13658;44.534;18.694;2022-10-28T05:33:02;57.13;;;31.95;;
25824;SDS011;13658;44.534;18.694;2022-10-28T05:35:29;53.90;;;30.85;;
25824;SDS011;13658;44.534;18.694;2022-10-28T05:37:56;54.72;;;29.98;;
25824;SDS011;13658;44.534;18.694;2022-10-28T05:40:22;60.25;;;30.92;;
25824;SDS011;13658;44.534;18.694;2022-10-28T05:42:50;51.70;;;30.35;;
25824;SDS011;13658;44.534;18.694;2022-10-28T05:45:16;46.92;;;26.88;;
25824;SDS011;13658;44.534;18.694;2022-10-28T05:47:43;49.53;;;28.83;;
25824;SDS011;13658;44.534;18.694;2022-10-28T05:50:10;42.30;;;26.48;;
25824;SDS011;13658;44.534;18.694;2022-10-28T05:52:36;49.75;;;28.30;;
25824;SDS011;13658;44.534;18.694;2022-10-28T05:55:02;44.70;;;26.23;;
25824;SDS011;13658;44.534;18.694;2022-10-28T05:57:28;54.53;;;27.10;;
25824;SDS011;13658;44.534;18.694;2022-10-28T05:59:54;52.42;;;28.98;;
25824;SDS011;13658;44.534;18.694;2022-10-28T06:02:20;49.50;;;29.67;;
25824;SDS011;13658;44.534;18.694;2022-10-28T06:04:46;49.83;;;28.50;;
25824;SDS011;13658;44.534;18.694;2022-10-28T06:07:12;52.65;;;29.15;;
25824;SDS011;13658;44.534;18.694;2022-10-28T06:09:38;53.20;;;30.67;;
25824;SDS011;13658;44.534;18.694;2022-10-28T06:12:04;50.78;;;27.42;;
25824;SDS011;13658;44.534;18.694;2022-10-28T06:14:31;40.67;;;26.67;;
25824;SDS011;13658;44.534;18.694;2022-10-28T06:16:56;50.78;;;27.38;;
25824;SDS011;13658;44.534;18.694;2022-10-28T06:19:22;49.65;;;27.63;;
25824;SDS011;13658;44.534;18.694;2022-10-28T06:21:48;58.05;;;28.30;;
25824;SDS011;13658;44.534;18.694;2022-10-28T06:24:14;55.20;;;27.55;;
25824;SDS011;13658;44.534;18.694;2022-10-28T06:26:40;44.00;;;27.13;;
25824;SDS011;13658;44.534;18.694;2022-10-28T06:29:07;40.90;;;25.02;;
25824;SDS011;13658;44.534;18.694;2022-10-28T06:31:37;45.40;;;24.73;;
25824;SDS011;13658;44.534;18.694;2022-10-28T06:34:05;43.58;;;25.70;;
25824;SDS011;13658;44.534;18.694;2022-10-28T06:36:31;43.63;;;23.83;;
25824;SDS011;13658;44.534;18.694;2022-10-28T06:38:57;34.65;;;22.10;;
25824;SDS011;13658;44.534;18.694;2022-10-28T06:41:23;36.55;;;22.25;;
25824;SDS011;13658;44.534;18.694;2022-10-28T06:43:49;32.78;;;20.30;;
25824;SDS011;13658;44.534;18.694;2022-10-28T06:46:15;36.60;;;21.08;;
25824;SDS011;13658;44.534;18.694;2022-10-28T06:48:41;35.20;;;20.58;;
25824;SDS011;13658;44.534;18.694;2022-10-28T06:51:06;37.20;;;21.90;;
25824;SDS011;13658;44.534;18.694;2022-10-28T06:53:32;37.13;;;21.20;;
25824;SDS011;13658;44.534;18.694;2022-10-28T06:55:58;39.30;;;22.25;;
25824;SDS011;13658;44.534;18.694;2022-10-28T06:58:24;32.05;;;21.35;;
25824;SDS011;13658;44.534;18.694;2022-10-28T07:00:51;42.80;;;22.30;;
25824;SDS011;13658;44.534;18.694;2022-10-28T07:03:18;37.85;;;23.85;;
25824;SDS011;13658;44.534;18.694;2022-10-28T07:05:44;34.33;;;22.75;;
25824;SDS011;13658;44.534;18.694;2022-10-28T07:08:13;36.50;;;23.30;;
25824;SDS011;13658;44.534;18.694;2022-10-28T07:10:39;43.40;;;26.42;;
25824;SDS011;13658;44.534;18.694;2022-10-28T07:13:06;36.35;;;23.48;;
25824;SDS011;13658;44.534;18.694;2022-10-28T07:15:32;48.03;;;27.58;;
25824;SDS011;13658;44.534;18.694;2022-10-28T07:17:58;40.08;;;24.45;;
25824;SDS011;13658;44.534;18.694;2022-10-28T07:20:25;37.17;;;22.75;;
25824;SDS011;13658;44.534;18.694;2022-10-28T07:22:58;38.33;;;22.73;;
25824;SDS011;13658;44.534;18.694;2022-10-28T07:25:26;43.58;;;24.90;;
25824;SDS011;13658;44.534;18.694;2022-10-28T07:27:53;42.10;;;23.65;;
25824;SDS011;13658;44.534;18.694;2022-10-28T07:30:21;44.75;;;25.00;;
25824;SDS011;13658;44.534;18.694;2022-10-28T07:32:47;45.10;;;28.88;;
25824;SDS011;13658;44.534;18.694;2022-10-28T07:35:13;42.33;;;25.00;;
25824;SDS011;13658;44.534;18.694;2022-10-28T07:37:42;38.72;;;24.42;;
25824;SDS011;13658;44.534;18.694;2022-10-28T07:40:08;39.97;;;24.02;;
25824;SDS011;13658;44.534;18.694;2022-10-28T07:42:34;38.97;;;24.25;;
25824;SDS011;13658;44.534;18.694;2022-10-28T07:45:01;31.70;;;22.33;;
25824;SDS011;13658;44.534;18.694;2022-10-28T07:47:27;35.30;;;22.77;;
25824;SDS011;13658;44.534;18.694;2022-10-28T07:49:54;34.67;;;21.00;;
25824;SDS011;13658;44.534;18.694;2022-10-28T07:52:20;32.83;;;20.67;;
25824;SDS011;13658;44.534;18.694;2022-10-28T07:54:46;34.13;;;19.58;;
25824;SDS011;13658;44.534;18.694;2022-10-28T07:57:12;27.65;;;18.55;;
25824;SDS011;13658;44.534;18.694;2022-10-28T07:59:38;25.75;;;17.77;;
25824;SDS011;13658;44.534;18.694;2022-10-28T08:02:05;30.10;;;18.75;;
25824;SDS011;13658;44.534;18.694;2022-10-28T08:04:31;26.17;;;18.42;;
25824;SDS011;13658;44.534;18.694;2022-10-28T08:06:57;26.08;;;18.13;;
25824;SDS011;13658;44.534;18.694;2022-10-28T08:09:23;31.17;;;21.63;;
25824;SDS011;13658;44.534;18.694;2022-10-28T08:11:49;29.63;;;20.60;;
25824;SDS011;13658;44.534;18.694;2022-10-28T08:14:19;36.47;;;24.38;;
25824;SDS011;13658;44.534;18.694;2022-10-28T08:16:45;34.85;;;22.25;;
25824;SDS011;13658;44.534;18.694;2022-10-28T08:19:10;36.40;;;23.45;;
25824;SDS011;13658;44.534;18.694;2022-10-28T08:21:36;38.80;;;24.58;;
25824;SDS011;13658;44.534;18.694;2022-10-28T08:24:02;36.70;;;25.17;;
25824;SDS011;13658;44.534;18.694;2022-10-28T08:26:28;33.70;;;22.77;;
25824;SDS011;13658;44.534;18.694;2022-10-28T08:28:54;34.53;;;24.10;;
25824;SDS011;13658;44.534;18.694;2022-10-28T08:31:20;37.95;;;26.88;;
25824;SDS011;13658;44.534;18.694;2022-10-28T08:33:46;33.95;;;24.58;;
25824;SDS011;13658;44.534;18.694;2022-10-28T08:36:14;36.13;;;24.45;;
25824;SDS011;13658;44.534;18.694;2022-10-28T08:38:44;36.25;;;22.42;;
25824;SDS011;13658;44.534;18.694;2022-10-28T08:49:13;36.75;;;24.88;;
25824;SDS011;13658;44.534;18.694;2022-10-28T08:54:25;31.88;;;22.75;;
25824;SDS011;13658;44.534;18.694;2022-10-28T08:56:55;31.88;;;22.63;;
25824;SDS011;13658;44.534;18.694;2022-10-28T08:59:26;25.30;;;19.48;;
25824;SDS011;13658;44.534;18.694;2022-10-28T09:02:00;19.13;;;13.73;;
25824;SDS011;13658;44.534;18.694;2022-10-28T09:04:53;24.85;;;16.08;;
25824;SDS011;13658;44.534;18.694;2022-10-28T09:07:26;23.70;;;16.70;;
25824;SDS011;13658;44.534;18.694;2022-10-28T09:09:52;26.60;;;17.27;;
25824;SDS011;13658;44.534;18.694;2022-10-28T09:15:31;21.63;;;14.45;;
25824;SDS011;13658;44.534;18.694;2022-10-28T09:23:21;24.55;;;16.67;;
25824;SDS011;13658;44.534;18.694;2022-10-28T09:33:56;22.75;;;17.35;;
25824;SDS011;13658;44.534;18.694;2022-10-28T09:36:48;23.42;;;18.27;;
25824;SDS011;13658;44.534;18.694;2022-10-28T09:41:46;27.25;;;22.23;;
25824;SDS011;13658;44.534;18.694;2022-10-28T09:44:17;29.63;;;21.77;;
25824;SDS011;13658;44.534;18.694;2022-10-28T09:46:53;30.85;;;20.58;;
25824;SDS011;13658;44.534;18.694;2022-10-28T09:49:33;23.58;;;17.52;;
25824;SDS011;13658;44.534;18.694;2022-10-28T09:52:15;27.63;;;19.10;;
25824;SDS011;13658;44.534;18.694;2022-10-28T09:54:49;26.58;;;21.10;;
25824;SDS011;13658;44.534;18.694;2022-10-28T09:57:16;29.10;;;21.33;;
25824;SDS011;13658;44.534;18.694;2022-10-28T09:59:43;24.98;;;18.20;;
25824;SDS011;13658;44.534;18.694;2022-10-28T10:02:28;31.17;;;21.88;;
25824;SDS011;13658;44.534;18.694;2022-10-28T10:04:56;25.13;;;20.38;;
25824;SDS011;13658;44.534;18.694;2022-10-28T10:07:38;25.25;;;20.38;;
25824;SDS011;13658;44.534;18.694;2022-10-28T10:10:12;27.47;;;20.70;;
25824;SDS011;13658;44.534;18.694;2022-10-28T10:12:50;30.02;;;21.35;;
25824;SDS011;13658;44.534;18.694;2022-10-28T10:17:59;21.73;;;17.23;;
25824;SDS011;13658;44.534;18.694;2022-10-28T10:20:28;23.13;;;19.90;;
25824;SDS011;13658;44.534;18.694;2022-10-28T10:23:56;26.92;;;19.90;;
25824;SDS011;13658;44.534;18.694;2022-10-28T10:26:04;28.42;;;19.48;;
25824;SDS011;13658;44.534;18.694;2022-10-28T10:28:32;31.23;;;23.15;;
25824;SDS011;13658;44.534;18.694;2022-10-28T10:31:05;28.13;;;17.80;;
25824;SDS011;13658;44.534;18.694;2022-10-28T10:33:34;22.90;;;16.13;;
25824;SDS011;13658;44.534;18.694;2022-10-28T10:38:34;30.45;;;18.00;;
25824;SDS011;13658;44.534;18.694;2022-10-28T10:41:01;30.45;;;19.85;;
25824;SDS011;13658;44.534;18.694;2022-10-28T10:48:28;26.17;;;17.70;;
25824;SDS011;13658;44.534;18.694;2022-10-28T10:50:56;32.05;;;19.70;;
25824;SDS011;13658;44.534;18.694;2022-10-28T10:53:26;22.20;;;17.38;;
25824;SDS011;13658;44.534;18.694;2022-10-28T10:58:32;26.52;;;18.25;;
25824;SDS011;13658;44.534;18.694;2022-10-28T11:01:01;18.35;;;13.30;;
25824;SDS011;13658;44.534;18.694;2022-10-28T11:03:50;21.15;;;12.52;;
25824;SDS011;13658;44.534;18.694;2022-10-28T11:06:20;16.17;;;9.75;;
25824;SDS011;13658;44.534;18.694;2022-10-28T11:08:55;17.67;;;10.73;;
25824;SDS011;13658;44.534;18.694;2022-10-28T11:11:33;14.82;;;9.93;;
25824;SDS011;13658;44.534;18.694;2022-10-28T11:16:33;17.35;;;9.55;;
25824;SDS011;13658;44.534;18.694;2022-10-28T11:19:20;14.20;;;10.20;;
25824;SDS011;13658;44.534;18.694;2022-10-28T11:24:28;11.85;;;9.23;;
25824;SDS011;13658;44.534;18.694;2022-10-28T11:30:11;8.27;;;5.18;;
25824;SDS011;13658;44.534;18.694;2022-10-28T11:35:58;23.42;;;14.77;;
25824;SDS011;13658;44.534;18.694;2022-10-28T11:43:58;15.15;;;6.93;;
25824;SDS011;13658;44.534;18.694;2022-10-28T12:05:34;11.68;;;6.28;;
25824;SDS011;13658;44.534;18.694;2022-10-28T12:13:24;6.57;;;4.63;;
25824;SDS011;13658;44.534;18.694;2022-10-28T12:16:08;7.03;;;5.35;;
25824;SDS011;13658;44.534;18.694;2022-10-28T12:21:21;11.35;;;6.60;;
25824;SDS011;13658;44.534;18.694;2022-10-28T12:23:57;7.60;;;5.32;;
25824;SDS011;13658;44.534;18.694;2022-10-28T12:26:40;10.35;;;5.40;;
25824;SDS011;13658;44.534;18.694;2022-10-28T12:29:23;23.95;;;15.52;;
25824;SDS011;13658;44.534;18.694;2022-10-28T12:32:08;10.15;;;5.20;;
25824;SDS011;13658;44.534;18.694;2022-10-28T12:34:39;9.38;;;5.18;;
25824;SDS011;13658;44.534;18.694;2022-10-28T12:37:19;7.03;;;4.72;;
25824;SDS011;13658;44.534;18.694;2022-10-28T12:39:56;20.73;;;12.00;;
25824;SDS011;13658;44.534;18.694;2022-10-28T12:42:56;8.63;;;5.47;;
25824;SDS011;13658;44.534;18.694;2022-10-28T12:45:30;7.22;;;5.07;;
25824;SDS011;13658;44.534;18.694;2022-10-28T12:47:58;15.13;;;9.73;;
25824;SDS011;13658;44.534;18.694;2022-10-28T12:50:56;7.85;;;4.50;;
25824;SDS011;13658;44.534;18.694;2022-10-28T12:56:23;8.95;;;6.32;;
25824;SDS011;13658;44.534;18.694;2022-10-28T13:01:24;10.20;;;7.47;;
25824;SDS011;13658;44.534;18.694;2022-10-28T13:03:53;13.05;;;8.25;;
25824;SDS011;13658;44.534;18.694;2022-10-28T13:08:59;7.22;;;5.05;;
25824;SDS011;13658;44.534;18.694;2022-10-28T13:27:37;9.38;;;5.40;;
25824;SDS011;13658;44.534;18.694;2022-10-28T13:30:04;8.95;;;5.57;;
25824;SDS011;13658;44.534;18.694;2022-10-28T13:35:00;8.88;;;4.88;;
25824;SDS011;13658;44.534;18.694;2022-10-28T13:37:38;9.40;;;5.35;;
25824;SDS011;13658;44.534;18.694;2022-10-28T13:40:05;11.10;;;5.53;;
25824;SDS011;13658;44.534;18.694;2022-10-28T13:42:45;8.07;;;5.97;;
25824;SDS011;13658;44.534;18.694;2022-10-28T13:56:11;18.92;;;13.82;;
25824;SDS011;13658;44.534;18.694;2022-10-28T14:04:20;50.42;;;28.50;;
25824;SDS011;13658;44.534;18.694;2022-10-28T14:07:02;11.88;;;7.53;;
25824;SDS011;13658;44.534;18.694;2022-10-28T14:09:34;9.52;;;7.22;;
25824;SDS011;13658;44.534;18.694;2022-10-28T14:12:11;40.28;;;27.77;;
25824;SDS011;13658;44.534;18.694;2022-10-28T14:14:55;11.00;;;7.80;;
25824;SDS011;13658;44.534;18.694;2022-10-28T14:17:34;14.25;;;7.95;;
25824;SDS011;13658;44.534;18.694;2022-10-28T14:20:01;12.35;;;7.45;;
25824;SDS011;13658;44.534;18.694;2022-10-28T14:22:34;13.20;;;7.85;;
25824;SDS011;13658;44.534;18.694;2022-10-28T14:25:01;11.30;;;7.15;;
25824;SDS011;13658;44.534;18.694;2022-10-28T14:27:28;12.82;;;7.22;;
25824;SDS011;13658;44.534;18.694;2022-10-28T14:30:14;10.27;;;7.13;;
25824;SDS011;13658;44.534;18.694;2022-10-28T14:37:56;13.20;;;7.93;;
25824;SDS011;13658;44.534;18.694;2022-10-28T14:40:53;10.88;;;7.80;;
25824;SDS011;13658;44.534;18.694;2022-10-28T14:49:38;17.60;;;9.48;;
25824;SDS011;13658;44.534;18.694;2022-10-28T14:52:06;13.27;;;8.38;;
25824;SDS011;13658;44.534;18.694;2022-10-28T14:54:50;15.05;;;9.05;;
25824;SDS011;13658;44.534;18.694;2022-10-28T14:57:28;12.65;;;8.38;;
25824;SDS011;13658;44.534;18.694;2022-10-28T14:59:55;12.85;;;9.05;;
25824;SDS011;13658;44.534;18.694;2022-10-28T15:02:26;12.68;;;8.18;;
25824;SDS011;13658;44.534;18.694;2022-10-28T15:05:36;14.63;;;9.20;;
25824;SDS011;13658;44.534;18.694;2022-10-28T15:07:48;14.60;;;9.32;;
25824;SDS011;13658;44.534;18.694;2022-10-28T15:10:15;13.68;;;8.95;;
25824;SDS011;13658;44.534;18.694;2022-10-28T15:12:53;14.82;;;8.88;;
25824;SDS011;13658;44.534;18.694;2022-10-28T15:15:23;21.95;;;10.40;;
25824;SDS011;13658;44.534;18.694;2022-10-28T15:17:51;14.50;;;8.98;;
25824;SDS011;13658;44.534;18.694;2022-10-28T15:22:52;14.68;;;9.88;;
25824;SDS011;13658;44.534;18.694;2022-10-28T15:25:34;17.23;;;11.63;;
25824;SDS011;13658;44.534;18.694;2022-10-28T15:28:00;17.17;;;10.48;;
25824;SDS011;13658;44.534;18.694;2022-10-28T15:30:26;15.85;;;11.23;;
25824;SDS011;13658;44.534;18.694;2022-10-28T15:32:52;137.73;;;73.22;;
25824;SDS011;13658;44.534;18.694;2022-10-28T15:35:38;58.63;;;35.53;;
25824;SDS011;13658;44.534;18.694;2022-10-28T15:38:29;22.42;;;16.00;;
25824;SDS011;13658;44.534;18.694;2022-10-28T15:40:52;45.83;;;28.38;;
25824;SDS011;13658;44.534;18.694;2022-10-28T15:43:23;43.20;;;23.60;;
25824;SDS011;13658;44.534;18.694;2022-10-28T15:45:52;25.38;;;16.83;;
25824;SDS011;13658;44.534;18.694;2022-10-28T15:48:23;64.40;;;37.83;;
25824;SDS011;13658;44.534;18.694;2022-10-28T15:51:11;22.35;;;16.05;;
25824;SDS011;13658;44.534;18.694;2022-10-28T15:53:42;42.63;;;27.55;;
25824;SDS011;13658;44.534;18.694;2022-10-28T15:56:22;55.15;;;36.35;;
25824;SDS011;13658;44.534;18.694;2022-10-28T15:59:00;43.47;;;27.10;;
25824;SDS011;13658;44.534;18.694;2022-10-28T16:06:42;52.35;;;30.73;;
25824;SDS011;13658;44.534;18.694;2022-10-28T16:11:43;50.58;;;30.30;;
25824;SDS011;13658;44.534;18.694;2022-10-28T16:14:57;68.45;;;40.75;;
25824;SDS011;13658;44.534;18.694;2022-10-28T16:19:42;91.35;;;52.45;;
25824;SDS011;13658;44.534;18.694;2022-10-28T16:22:29;93.53;;;53.70;;
25824;SDS011;13658;44.534;18.694;2022-10-28T16:24:58;84.63;;;48.35;;
25824;SDS011;13658;44.534;18.694;2022-10-28T16:27:25;102.88;;;53.15;;
25824;SDS011;13658;44.534;18.694;2022-10-28T16:29:56;113.82;;;59.05;;
25824;SDS011;13658;44.534;18.694;2022-10-28T16:32:26;135.02;;;69.65;;
25824;SDS011;13658;44.534;18.694;2022-10-28T16:34:56;188.63;;;101.57;;
25824;SDS011;13658;44.534;18.694;2022-10-28T16:37:27;178.50;;;99.43;;
25824;SDS011;13658;44.534;18.694;2022-10-28T16:39:55;172.70;;;93.82;;
25824;SDS011;13658;44.534;18.694;2022-10-28T16:42:22;169.48;;;92.13;;
25824;SDS011;13658;44.534;18.694;2022-10-28T16:44:49;167.98;;;91.57;;
25824;SDS011;13658;44.534;18.694;2022-10-28T16:47:15;165.13;;;90.57;;
25824;SDS011;13658;44.534;18.694;2022-10-28T16:49:44;164.15;;;84.82;;
25824;SDS011;13658;44.534;18.694;2022-10-28T16:52:13;136.98;;;75.22;;
25824;SDS011;13658;44.534;18.694;2022-10-28T16:54:42;122.07;;;70.18;;
25824;SDS011;13658;44.534;18.694;2022-10-28T16:57:07;115.78;;;69.80;;
25824;SDS011;13658;44.534;18.694;2022-10-28T16:59:33;118.13;;;67.30;;
25824;SDS011;13658;44.534;18.694;2022-10-28T17:01:59;143.02;;;79.35;;
25824;SDS011;13658;44.534;18.694;2022-10-28T17:04:25;140.05;;;80.72;;
25824;SDS011;13658;44.534;18.694;2022-10-28T17:06:51;140.70;;;80.03;;
25824;SDS011;13658;44.534;18.694;2022-10-28T17:09:17;139.98;;;78.07;;
25824;SDS011;13658;44.534;18.694;2022-10-28T17:11:43;119.75;;;68.70;;
25824;SDS011;13658;44.534;18.694;2022-10-28T17:14:09;100.43;;;57.08;;
25824;SDS011;13658;44.534;18.694;2022-10-28T17:16:35;85.25;;;51.38;;
25824;SDS011;13658;44.534;18.694;2022-10-28T17:19:01;79.55;;;49.90;;
25824;SDS011;13658;44.534;18.694;2022-10-28T17:21:27;77.57;;;47.88;;
25824;SDS011;13658;44.534;18.694;2022-10-28T17:23:53;72.22;;;46.67;;
25824;SDS011;13658;44.534;18.694;2022-10-28T17:26:19;69.18;;;42.80;;
25824;SDS011;13658;44.534;18.694;2022-10-28T17:28:49;70.45;;;43.85;;
25824;SDS011;13658;44.534;18.694;2022-10-28T17:31:16;69.88;;;42.83;;
25824;SDS011;13658;44.534;18.694;2022-10-28T17:33:42;98.07;;;59.83;;
25824;SDS011;13658;44.534;18.694;2022-10-28T17:36:08;108.00;;;66.60;;
25824;SDS011;13658;44.534;18.694;2022-10-28T17:38:34;101.20;;;66.70;;